SBJP/JPA METAR and TAF weather

Enter ICAO airport designator
Station Type Date Time Source
SBJP METAR 2020/07/11 01:00 UTC NOAA

SBJP 110100Z 17006KT 9999 FEW022 23/22 Q1016


Station Type Date Time Source
SBJP Decoded METAR 2020/07/11 01:00 UTC NOAA

Joao Pessoa, Brazil (SBJP) 07-06S 034-52W
Jul 10, 2020 - 09:00 PM EDT / 2020.07.11 0100 UTC
Wind: from the S (170 degrees) at 7 MPH (6 KT):0
Visibility: greater than 7 mile(s):0
Sky conditions: mostly clear
Temperature: 73 F (23 C)
Dew Point: 71 F (22 C)
Relative Humidity: 94%
Pressure (altimeter): 30.00 in. Hg (1016 hPa)
ob: SBJP 110100Z 17006KT 9999 FEW022 23/22 Q1016
cycle: 1

Station Type Date Time Source
SBJP TAF 2020/07/11 06:33 UTC NOAA

TAF TAF SBJP 110300Z 1106/1206 14008KT 9999 SCT022 TN21/1106Z TX29/1115Z
BECMG 1108/1110 4000 RA BKN010 BKN020
BECMG 1120/1122 9999 SCT020
BECMG 1200/1202 4000 RA BKN010 BKN020
BECMG 1204/1206 9999 SCT020
RMK PEG

Example: see airport list